Time;durP1;ratioP1;P1;durP2;ratioP2;P2;SDS_P1;SDS_P2;PMS_P1;PMS_P2;Temp;Humidity;BMP_temperature;BMP_pressure;BME280_temperature;BME280_humidity;BME280_pressure;Samples;Min_cycle;Max_cycle;Signal;HPM_P1;HPM_P2
2023/11/14 00:02:09;;;;;;;12.68;3.00;;;11.40;99.90;;;;;;4965513;28;20035;-58
2023/11/14 00:04:36;;;;;;;14.85;3.05;;;11.40;99.90;;;;;;4959001;28;20045;-49
2023/11/14 00:07:02;;;;;;;10.02;2.35;;;11.40;99.90;;;;;;4968724;28;20449;-53
2023/11/14 00:09:29;;;;;;;11.68;2.75;;;11.50;99.90;;;;;;4968113;28;20015;-52
2023/11/14 00:11:54;;;;;;;11.90;2.85;;;11.50;99.90;;;;;;4969704;28;20027;-53
2023/11/14 00:14:21;;;;;;;12.20;2.65;;;11.50;99.90;;;;;;4968338;28;20030;-52
2023/11/14 00:16:46;;;;;;;12.02;2.55;;;11.40;99.90;;;;;;4968338;28;20022;-52
2023/11/14 00:19:12;;;;;;;13.15;3.45;;;11.40;99.90;;;;;;4970004;28;20035;-50
2023/11/14 00:21:38;;;;;;;15.75;2.30;;;11.50;99.90;;;;;;4966050;28;20043;-47
2023/11/14 00:24:04;;;;;;;11.35;2.33;;;11.40;99.90;;;;;;4950514;29;20291;-50
2023/11/14 00:26:29;;;;;;;11.70;2.20;;;11.50;99.90;;;;;;4950566;29;20514;-54
2023/11/14 00:28:55;;;;;;;12.10;2.63;;;11.50;99.90;;;;;;4950694;29;20390;-54
2023/11/14 00:31:21;;;;;;;15.90;2.47;;;11.50;99.90;;;;;;4949049;28;20024;-51
2023/11/14 00:33:46;;;;;;;9.25;2.55;;;11.60;99.90;;;;;;4952942;28;20026;-52
2023/11/14 00:36:12;;;;;;;11.10;2.35;;;11.70;99.90;;;;;;4968417;28;20031;-54
2023/11/14 00:38:37;;;;;;;10.60;2.20;;;11.70;99.90;;;;;;4970548;28;20041;-52
2023/11/14 00:41:03;;;;;;;15.45;2.80;;;11.70;99.90;;;;;;4971123;28;20161;-50
2023/11/14 00:43:29;;;;;;;17.92;3.33;;;11.80;99.90;;;;;;4972464;28;20030;-53
2023/11/14 00:45:54;;;;;;;15.38;3.22;;;11.70;99.90;;;;;;4972503;28;20022;-50
2023/11/14 00:48:20;;;;;;;12.20;2.45;;;11.70;99.90;;;;;;4972498;28;20061;-52
2023/11/14 00:50:46;;;;;;;26.50;4.93;;;11.70;99.90;;;;;;4972408;28;20394;-48
2023/11/14 00:53:11;;;;;;;14.50;3.05;;;11.60;99.90;;;;;;4972435;28;20474;-53
2023/11/14 00:55:37;;;;;;;14.93;3.22;;;11.60;99.90;;;;;;4972454;28;20031;-50
2023/11/14 00:58:02;;;;;;;14.30;3.10;;;11.50;99.90;;;;;;4972330;28;20023;-47
2023/11/14 01:00:28;;;;;;;8.60;2.58;;;11.50;99.90;;;;;;4972695;28;20076;-49
2023/11/14 01:02:54;;;;;;;24.20;4.03;;;11.60;99.90;;;;;;4972615;28;20113;-47
2023/11/14 01:05:23;;;;;;;25.00;4.15;;;11.50;99.90;;;;;;4972400;28;20395;-52
2023/11/14 01:07:48;;;;;;;10.27;3.10;;;11.50;99.90;;;;;;4972174;28;20023;-52
2023/11/14 01:10:14;;;;;;;12.57;4.15;;;11.40;99.90;;;;;;4971969;28;20512;-49
2023/11/14 01:12:39;;;;;;;14.70;3.10;;;11.40;99.90;;;;;;4970994;28;20023;-49
2023/11/14 01:15:05;;;;;;;17.88;3.28;;;11.40;99.90;;;;;;4972198;28;20019;-49
2023/11/14 01:17:31;;;;;;;15.95;3.53;;;11.40;99.90;;;;;;4972195;28;20030;-48
2023/11/14 01:19:56;;;;;;;15.38;4.03;;;11.40;99.90;;;;;;4972004;28;20019;-53
2023/11/14 01:22:22;;;;;;;20.30;3.85;;;11.40;99.90;;;;;;4970648;28;20509;-54
2023/11/14 01:24:48;;;;;;;13.35;4.80;;;11.40;99.90;;;;;;4971778;28;20023;-49
2023/11/14 01:27:14;;;;;;;14.95;3.35;;;11.40;99.90;;;;;;4971972;28;20049;-50
2023/11/14 01:29:40;;;;;;;16.52;3.08;;;11.30;99.90;;;;;;4970563;28;20023;-48
2023/11/14 01:32:06;;;;;;;12.50;2.88;;;11.20;99.90;;;;;;4971738;28;20023;-53
2023/11/14 01:34:32;;;;;;;16.63;3.30;;;11.20;99.90;;;;;;4971931;28;20031;-47
2023/11/14 01:36:58;;;;;;;20.80;3.40;;;11.10;99.90;;;;;;4971583;28;20368;-51
2023/11/14 01:39:25;;;;;;;23.77;3.60;;;11.10;99.90;;;;;;4971663;28;20494;-50
2023/11/14 01:41:51;;;;;;;13.02;3.42;;;11.10;99.90;;;;;;4971392;28;20484;-48
2023/11/14 01:44:16;;;;;;;16.33;4.05;;;11.00;99.90;;;;;;4971636;28;20490;-54
2023/11/14 01:46:42;;;;;;;15.15;4.53;;;11.00;99.90;;;;;;4971567;28;20030;-51
2023/11/14 01:49:08;;;;;;;23.92;3.42;;;11.00;99.90;;;;;;4970342;28;20065;-51
2023/11/14 01:51:35;;;;;;;26.98;3.63;;;10.90;99.90;;;;;;4971139;28;20046;-51
2023/11/14 01:54:01;;;;;;;17.42;3.47;;;10.80;99.90;;;;;;4971689;28;20031;-51
2023/11/14 01:56:28;;;;;;;24.02;3.83;;;10.80;99.90;;;;;;4971487;28;20457;-52
2023/11/14 01:58:54;;;;;;;17.13;3.40;;;10.80;99.90;;;;;;4971626;28;20579;-52
2023/11/14 02:01:21;;;;;;;31.10;4.40;;;10.80;99.90;;;;;;4971219;28;20102;-48
2023/11/14 02:03:47;;;;;;;20.55;3.42;;;10.80;99.90;;;;;;4971401;28;20022;-50
2023/11/14 02:06:13;;;;;;;15.70;3.75;;;10.70;99.90;;;;;;4971335;28;20052;-48
2023/11/14 02:08:40;;;;;;;14.20;3.83;;;10.70;99.90;;;;;;4970056;28;20097;-49
2023/11/14 02:11:06;;;;;;;20.38;3.22;;;10.70;99.90;;;;;;4971105;28;20015;-48
2023/11/14 02:13:33;;;;;;;17.85;4.10;;;10.70;99.90;;;;;;4971234;28;20030;-49
2023/11/14 02:15:59;;;;;;;16.05;3.08;;;10.60;99.90;;;;;;4971186;28;20031;-51
2023/11/14 02:18:24;;;;;;;17.52;4.68;;;10.80;99.90;;;;;;4970983;28;20041;-53
2023/11/14 02:20:50;;;;;;;10.75;4.07;;;10.70;99.90;;;;;;4970742;28;20030;-48
2023/11/14 02:23:17;;;;;;;21.65;3.33;;;10.70;99.90;;;;;;4971270;28;20038;-49
2023/11/14 02:25:43;;;;;;;15.75;3.70;;;10.60;99.90;;;;;;4971115;28;20540;-50
2023/11/14 02:28:09;;;;;;;14.63;3.63;;;10.60;99.90;;;;;;4970900;28;20031;-53
2023/11/14 02:30:35;;;;;;;14.45;2.58;;;10.60;99.90;;;;;;4969594;28;20019;-53
2023/11/14 02:33:05;;;;;;;12.40;3.20;;;10.60;99.90;;;;;;4970884;28;20046;-52
2023/11/14 02:35:30;;;;;;;19.30;3.72;;;10.60;99.90;;;;;;4970848;28;20418;-49
2023/11/14 02:37:57;;;;;;;15.05;4.30;;;10.60;99.90;;;;;;4971225;28;20037;-53
2023/11/14 02:40:23;;;;;;;16.67;3.85;;;10.60;99.90;;;;;;4970556;28;20035;-49
2023/11/14 02:42:50;;;;;;;19.65;4.63;;;10.60;99.90;;;;;;4971281;28;20528;-48
2023/11/14 02:45:16;;;;;;;16.75;2.70;;;10.60;99.90;;;;;;4970907;28;20466;-49
2023/11/14 02:47:42;;;;;;;15.20;2.85;;;10.60;99.90;;;;;;4970808;28;20038;-55
2023/11/14 02:50:29;;;;;;;17.15;3.17;;;10.50;99.90;;;;;;4969664;28;20494;-48
2023/11/14 02:52:55;;;;;;;18.00;2.60;;;10.50;99.90;;;;;;4970484;28;20025;-47
2023/11/14 02:55:21;;;;;;;13.70;3.38;;;10.50;99.90;;;;;;4970444;28;20023;-50
2023/11/14 02:57:46;;;;;;;18.48;4.18;;;10.50;99.90;;;;;;4970445;28;20050;-51
2023/11/14 03:00:15;;;;;;;12.48;2.78;;;10.50;99.90;;;;;;4970081;28;20084;-52
2023/11/14 03:02:42;;;;;;;20.90;4.07;;;10.50;99.90;;;;;;4970700;28;20540;-50
2023/11/14 03:05:08;;;;;;;18.80;3.58;;;10.50;99.90;;;;;;4970321;28;20031;-47
2023/11/14 03:07:34;;;;;;;15.70;3.03;;;10.60;99.90;;;;;;4970285;28;20027;-50
2023/11/14 03:10:01;;;;;;;28.73;4.05;;;10.50;99.90;;;;;;4970227;28;20030;-46
2023/11/14 03:12:26;;;;;;;16.52;3.28;;;10.50;99.90;;;;;;4970536;28;20072;-53
2023/11/14 03:14:52;;;;;;;19.00;3.53;;;10.50;99.90;;;;;;4970266;28;20043;-49
2023/11/14 03:17:18;;;;;;;16.10;3.30;;;10.50;99.90;;;;;;4970307;28;20568;-49
2023/11/14 03:19:43;;;;;;;19.35;3.00;;;10.50;99.90;;;;;;4970396;28;20027;-51
2023/11/14 03:22:09;;;;;;;18.95;2.75;;;10.50;99.90;;;;;;4970092;28;20033;-52
2023/11/14 03:24:38;;;;;;;20.05;3.20;;;10.50;99.90;;;;;;4970077;28;20038;-48
2023/11/14 03:27:03;;;;;;;21.33;3.25;;;10.50;99.90;;;;;;4968691;28;20026;-51
2023/11/14 03:29:29;;;;;;;13.80;2.80;;;10.60;99.90;;;;;;4968871;28;20023;-47
2023/11/14 03:31:54;;;;;;;15.00;2.95;;;10.50;99.90;;;;;;4969762;28;20486;-52
2023/11/14 03:34:20;;;;;;;23.17;3.55;;;10.60;99.90;;;;;;4969959;28;20031;-49
2023/11/14 03:36:45;;;;;;;17.83;2.78;;;10.60;99.90;;;;;;4969978;28;20027;-51
2023/11/14 03:39:13;;;;;;;25.30;4.57;;;10.60;99.90;;;;;;4970124;28;20035;-47
2023/11/14 03:41:39;;;;;;;17.48;3.83;;;10.60;99.90;;;;;;4969659;28;20126;-52
2023/11/14 03:44:04;;;;;;;18.80;4.75;;;10.60;99.90;;;;;;4969389;28;20471;-48
2023/11/14 03:46:30;;;;;;;18.00;3.63;;;10.70;99.90;;;;;;4968003;28;20393;-47
2023/11/14 03:48:55;;;;;;;16.10;3.22;;;10.50;99.90;;;;;;4969802;28;20508;-50
2023/11/14 03:51:21;;;;;;;16.23;3.30;;;10.30;99.90;;;;;;4969461;28;20031;-49
2023/11/14 03:53:47;;;;;;;20.00;4.45;;;10.60;99.90;;;;;;4969813;28;20026;-49
2023/11/14 03:56:12;;;;;;;21.55;4.95;;;10.70;99.90;;;;;;4968203;28;20027;-51
2023/11/14 03:58:39;;;;;;;14.63;3.13;;;10.60;99.90;;;;;;4969835;28;20081;-52
2023/11/14 04:01:04;;;;;;;19.63;3.85;;;10.60;99.90;;;;;;4969463;28;20029;-50
2023/11/14 04:03:30;;;;;;;15.90;4.45;;;10.70;99.90;;;;;;4969705;28;20031;-53
2023/11/14 04:05:56;;;;;;;20.08;3.35;;;10.70;99.90;;;;;;4969579;28;20030;-50
2023/11/14 04:08:22;;;;;;;18.90;3.15;;;11.10;99.90;;;;;;4969553;28;20023;-53
2023/11/14 04:10:48;;;;;;;22.27;3.92;;;10.70;99.90;;;;;;4969303;28;20045;-51
2023/11/14 04:13:13;;;;;;;22.05;3.53;;;10.60;99.90;;;;;;4969814;28;20104;-50
2023/11/14 04:15:39;;;;;;;22.73;3.63;;;10.50;99.90;;;;;;4969606;28;20027;-53
2023/11/14 04:18:04;;;;;;;33.05;5.13;;;10.50;99.90;;;;;;4969693;28;20482;-48
2023/11/14 04:20:30;;;;;;;18.48;4.00;;;10.50;99.90;;;;;;4967923;28;20042;-47
2023/11/14 04:22:55;;;;;;;22.20;3.60;;;10.60;99.90;;;;;;4969364;28;20031;-46
2023/11/14 04:25:21;;;;;;;19.25;3.03;;;10.60;99.90;;;;;;4969193;28;20033;-49
2023/11/14 04:27:46;;;;;;;19.85;3.38;;;10.60;99.90;;;;;;4969486;28;20019;-48
2023/11/14 04:30:12;;;;;;;11.70;2.60;;;10.70;99.90;;;;;;4968221;28;20148;-43
2023/11/14 04:32:38;;;;;;;14.95;3.05;;;10.70;99.90;;;;;;4969410;28;20486;-52
2023/11/14 04:35:03;;;;;;;19.15;3.13;;;10.60;99.90;;;;;;4968020;28;20445;-53
2023/11/14 04:37:29;;;;;;;21.73;4.32;;;10.70;99.90;;;;;;4969470;28;20482;-48
2023/11/14 04:39:54;;;;;;;23.08;4.13;;;10.70;99.90;;;;;;4969213;28;20034;-51
2023/11/14 04:42:20;;;;;;;10.20;2.55;;;10.70;99.90;;;;;;4967955;28;20458;-49
2023/11/14 04:44:46;;;;;;;36.13;3.70;;;10.60;99.90;;;;;;4968853;28;20035;-50
2023/11/14 04:47:11;;;;;;;19.23;3.53;;;10.60;99.90;;;;;;4970209;28;20035;-48
2023/11/14 04:49:37;;;;;;;22.27;4.82;;;10.50;99.90;;;;;;4969198;28;20448;-52
2023/11/14 04:52:02;;;;;;;20.40;3.70;;;10.50;99.90;;;;;;4967627;28;20141;-50
2023/11/14 04:54:28;;;;;;;14.20;3.55;;;10.50;99.90;;;;;;4969012;28;20039;-52
2023/11/14 04:56:54;;;;;;;17.10;4.53;;;10.50;99.90;;;;;;4970788;28;20065;-48
2023/11/14 04:59:19;;;;;;;10.48;2.90;;;10.50;99.90;;;;;;4972255;28;20027;-50
2023/11/14 05:01:44;;;;;;;16.02;3.78;;;10.40;99.90;;;;;;4970805;28;20045;-48
2023/11/14 05:04:11;;;;;;;12.77;2.88;;;10.50;99.90;;;;;;4970477;28;20054;-52
2023/11/14 05:06:36;;;;;;;23.52;3.50;;;10.50;99.90;;;;;;4972072;28;20389;-50
2023/11/14 05:09:03;;;;;;;23.33;4.25;;;10.40;99.90;;;;;;4970851;28;20023;-49
2023/11/14 05:11:29;;;;;;;17.40;3.65;;;10.50;99.90;;;;;;4971872;28;20105;-54
2023/11/14 05:13:54;;;;;;;19.52;3.03;;;10.40;99.90;;;;;;4972091;28;20156;-55
2023/11/14 05:16:20;;;;;;;16.08;3.42;;;10.30;99.90;;;;;;4971977;28;20076;-49
2023/11/14 05:18:45;;;;;;;16.33;3.13;;;10.20;99.90;;;;;;4970612;28;20464;-46
2023/11/14 05:21:11;;;;;;;20.13;4.13;;;10.30;99.90;;;;;;4971800;28;20031;-54
2023/11/14 05:23:36;;;;;;;18.85;3.28;;;10.30;99.90;;;;;;4971822;28;20039;-51
2023/11/14 05:26:02;;;;;;;18.33;4.95;;;10.20;99.90;;;;;;4971006;28;20020;-46
2023/11/14 05:28:28;;;;;;;12.00;3.30;;;10.30;99.90;;;;;;4972388;28;20035;-45
2023/11/14 05:30:53;;;;;;;23.15;3.67;;;10.40;99.90;;;;;;4971643;28;20030;-50
2023/11/14 05:33:19;;;;;;;29.20;4.60;;;10.40;99.90;;;;;;4971571;28;20029;-47
2023/11/14 05:35:44;;;;;;;19.60;3.40;;;10.50;99.90;;;;;;4971753;28;20042;-49
2023/11/14 05:38:10;;;;;;;15.95;4.97;;;10.60;99.90;;;;;;4971260;28;20058;-48
2023/11/14 05:40:35;;;;;;;18.60;3.40;;;10.60;99.90;;;;;;4971228;28;20585;-50
2023/11/14 05:43:02;;;;;;;17.67;3.80;;;10.70;99.90;;;;;;4970197;28;20160;-49
2023/11/14 05:45:28;;;;;;;18.10;3.60;;;10.70;99.90;;;;;;4971212;28;20033;-48
2023/11/14 05:47:53;;;;;;;19.40;3.03;;;10.70;99.90;;;;;;4972007;28;20464;-53
2023/11/14 05:50:19;;;;;;;18.90;4.07;;;10.80;99.90;;;;;;4971229;28;20110;-50
2023/11/14 05:52:44;;;;;;;14.05;4.18;;;10.80;99.90;;;;;;4971717;28;20048;-48
2023/11/14 05:55:10;;;;;;;20.38;2.75;;;11.00;99.90;;;;;;4971448;28;20426;-52
2023/11/14 05:57:35;;;;;;;17.02;3.60;;;11.20;99.90;;;;;;4971244;28;20022;-47
2023/11/14 06:00:02;;;;;;;13.05;3.45;;;11.20;99.90;;;;;;4971374;28;20035;-51
2023/11/14 06:02:27;;;;;;;10.88;2.42;;;11.20;99.90;;;;;;4971234;28;20406;-48
2023/11/14 06:04:53;;;;;;;15.90;3.38;;;11.30;99.90;;;;;;4972027;28;20027;-49
2023/11/14 06:07:19;;;;;;;24.65;3.38;;;11.30;99.90;;;;;;4971039;28;20549;-48
2023/11/14 06:09:44;;;;;;;14.27;2.65;;;11.40;99.90;;;;;;4970796;28;20015;-48
2023/11/14 06:12:10;;;;;;;12.00;3.20;;;11.40;99.90;;;;;;4971051;28;20023;-47
2023/11/14 06:14:35;;;;;;;14.10;2.80;;;11.30;99.90;;;;;;4971154;28;20050;-47
2023/11/14 06:17:01;;;;;;;16.40;3.40;;;11.30;99.90;;;;;;4971497;28;20581;-51
2023/11/14 06:19:28;;;;;;;16.50;4.05;;;11.30;99.90;;;;;;4971065;28;20031;-45
2023/11/14 06:21:53;;;;;;;17.08;4.35;;;11.30;99.90;;;;;;4970829;28;20019;-50
2023/11/14 06:24:19;;;;;;;6.03;2.58;;;11.30;99.90;;;;;;4971039;28;20522;-50
2023/11/14 06:26:44;;;;;;;14.50;4.05;;;11.40;99.90;;;;;;4970885;28;20051;-49
2023/11/14 06:29:10;;;;;;;12.50;2.92;;;11.40;99.90;;;;;;4970881;28;20532;-52
2023/11/14 06:31:40;;;;;;;18.50;4.22;;;11.40;99.90;;;;;;4970452;28;20042;-51
2023/11/14 06:34:06;;;;;;;17.02;3.47;;;11.40;99.90;;;;;;4970986;28;20042;-48
2023/11/14 06:36:31;;;;;;;23.73;3.08;;;11.40;99.90;;;;;;4970792;28;20040;-51
2023/11/14 06:38:57;;;;;;;18.67;3.75;;;11.40;99.90;;;;;;4970791;28;20387;-51
2023/11/14 06:41:22;;;;;;;11.73;3.25;;;11.40;99.90;;;;;;4969679;28;20094;-51
2023/11/14 06:43:48;;;;;;;12.43;3.90;;;11.40;99.90;;;;;;4968813;28;20398;-48
2023/11/14 06:46:13;;;;;;;15.65;2.72;;;11.40;99.90;;;;;;4969356;28;20027;-45
2023/11/14 06:48:39;;;;;;;17.38;3.08;;;11.50;99.90;;;;;;4970778;28;20073;-52
2023/11/14 06:51:05;;;;;;;13.80;2.53;;;11.50;99.90;;;;;;4970319;28;20043;-53
2023/11/14 06:53:30;;;;;;;14.30;3.58;;;11.60;99.90;;;;;;4970599;28;20106;-48
2023/11/14 06:55:56;;;;;;;20.17;3.58;;;11.60;99.90;;;;;;4970521;28;20031;-54
2023/11/14 06:58:21;;;;;;;13.05;2.28;;;11.60;99.90;;;;;;4970314;28;20109;-52
2023/11/14 07:00:47;;;;;;;13.52;3.45;;;11.60;99.90;;;;;;4969076;28;20034;-48
2023/11/14 07:03:12;;;;;;;13.23;2.75;;;11.50;99.90;;;;;;4971033;28;20397;-50
2023/11/14 07:05:38;;;;;;;11.05;2.47;;;11.60;99.90;;;;;;4971430;28;20027;-48
2023/11/14 07:08:04;;;;;;;11.30;2.97;;;11.60;99.90;;;;;;4970982;28;20102;-48
2023/11/14 07:10:32;;;;;;;16.92;3.00;;;11.60;99.90;;;;;;4970265;28;20394;-49
2023/11/14 07:12:58;;;;;;;13.38;3.55;;;11.60;99.90;;;;;;4970123;28;20031;-47
2023/11/14 07:15:23;;;;;;;13.57;2.75;;;11.60;99.90;;;;;;4971096;28;20504;-49
2023/11/14 07:17:49;;;;;;;20.23;3.33;;;11.60;99.90;;;;;;4970676;28;20031;-50
2023/11/14 07:20:20;;;;;;;10.95;2.42;;;11.60;99.90;;;;;;4969321;28;20022;-50
2023/11/14 07:22:46;;;;;;;18.40;2.83;;;11.70;99.90;;;;;;4970382;28;20023;-49
2023/11/14 07:25:12;;;;;;;17.98;3.13;;;11.70;99.90;;;;;;4968706;28;20031;-50
2023/11/14 07:27:40;;;;;;;17.23;5.25;;;11.70;99.90;;;;;;4970104;28;20039;-53
2023/11/14 07:30:10;;;;;;;11.52;2.75;;;11.80;99.90;;;;;;4969771;28;20114;-53
2023/11/14 07:32:35;;;;;;;14.73;2.83;;;11.80;99.90;;;;;;4968332;28;20046;-49
2023/11/14 07:35:02;;;;;;;16.98;2.78;;;11.90;99.90;;;;;;4969856;28;20030;-52
2023/11/14 07:37:27;;;;;;;11.07;3.38;;;11.90;99.90;;;;;;4969885;28;20022;-47
2023/11/14 07:39:52;;;;;;;13.85;2.60;;;11.90;99.90;;;;;;4969610;28;20033;-51
2023/11/14 07:42:18;;;;;;;12.55;2.55;;;11.90;99.90;;;;;;4968407;28;20030;-54
2023/11/14 07:44:43;;;;;;;15.52;4.22;;;12.00;99.90;;;;;;4969762;28;20042;-51
2023/11/14 07:47:09;;;;;;;15.68;2.90;;;12.00;99.90;;;;;;4969950;28;20023;-51
2023/11/14 07:49:34;;;;;;;12.45;2.33;;;12.00;99.90;;;;;;4970138;28;20038;-51
2023/11/14 07:52:00;;;;;;;14.80;4.43;;;12.10;99.90;;;;;;4969501;28;20386;-50
2023/11/14 07:54:25;;;;;;;20.58;3.28;;;12.20;99.90;;;;;;4968532;28;20108;-48
2023/11/14 07:56:51;;;;;;;19.67;2.72;;;12.20;99.90;;;;;;4968405;28;20023;-48
2023/11/14 07:59:17;;;;;;;12.38;3.63;;;12.20;99.90;;;;;;4969536;28;20106;-49
2023/11/14 08:01:43;;;;;;;17.40;2.47;;;12.20;99.90;;;;;;4969524;28;20019;-47
2023/11/14 08:04:10;;;;;;;17.10;3.40;;;12.20;99.90;;;;;;4969528;28;20034;-52
2023/11/14 08:06:36;;;;;;;21.85;4.30;;;12.30;99.90;;;;;;4969505;28;20076;-50
2023/11/14 08:09:04;;;;;;;23.42;3.88;;;12.30;99.90;;;;;;4968389;28;20023;-50
2023/11/14 08:11:31;;;;;;;16.33;3.60;;;12.30;99.90;;;;;;4969354;28;20023;-46
2023/11/14 08:13:57;;;;;;;10.88;2.67;;;12.40;99.90;;;;;;4969410;28;20049;-55
2023/11/14 08:16:23;;;;;;;10.75;2.97;;;12.40;99.90;;;;;;4968251;28;20096;-49
2023/11/14 08:18:49;;;;;;;21.20;3.85;;;12.40;99.90;;;;;;4969590;28;20027;-49
2023/11/14 08:21:15;;;;;;;15.68;2.90;;;12.40;99.90;;;;;;4969218;28;20027;-51
2023/11/14 08:23:42;;;;;;;23.17;4.30;;;12.40;99.90;;;;;;4968008;28;20061;-52
2023/11/14 08:26:08;;;;;;;18.60;3.92;;;12.40;99.90;;;;;;4967987;28;20505;-47
2023/11/14 08:28:33;;;;;;;19.17;4.85;;;12.50;99.90;;;;;;4969272;28;20115;-53
2023/11/14 08:30:59;;;;;;;10.13;3.08;;;12.50;99.90;;;;;;4969594;28;20407;-51
2023/11/14 08:33:24;;;;;;;16.70;3.17;;;12.50;99.90;;;;;;4972544;28;20027;-50
2023/11/14 08:35:50;;;;;;;13.27;3.67;;;12.50;99.90;;;;;;4972686;28;20045;-51
2023/11/14 08:38:15;;;;;;;26.15;3.75;;;12.50;99.90;;;;;;4972547;28;20414;-50
2023/11/14 08:40:41;;;;;;;13.40;3.75;;;12.60;99.90;;;;;;4972262;28;20434;-53
2023/11/14 08:43:06;;;;;;;12.70;3.38;;;12.60;99.90;;;;;;4972348;28;20084;-47
2023/11/14 08:45:32;;;;;;;19.23;3.92;;;12.60;99.90;;;;;;4972117;28;20023;-55
2023/11/14 08:47:58;;;;;;;15.75;3.30;;;12.60;99.90;;;;;;4971972;28;20023;-48
2023/11/14 08:50:23;;;;;;;21.40;3.85;;;12.60;99.90;;;;;;4971919;28;20436;-53
2023/11/14 08:52:49;;;;;;;17.80;3.22;;;12.60;99.90;;;;;;4972193;28;20027;-51
2023/11/14 08:55:14;;;;;;;17.73;2.88;;;12.60;99.90;;;;;;4972505;28;20027;-48
2023/11/14 08:57:40;;;;;;;11.82;3.03;;;12.60;99.90;;;;;;4971042;28;20022;-53
2023/11/14 09:00:10;;;;;;;13.55;3.17;;;12.60;99.90;;;;;;4972221;28;20027;-50
2023/11/14 09:02:36;;;;;;;16.95;2.60;;;12.70;99.90;;;;;;4972320;28;20031;-52
2023/11/14 09:05:03;;;;;;;12.30;3.28;;;12.70;99.90;;;;;;4972103;28;20055;-53
2023/11/14 09:07:28;;;;;;;15.05;3.65;;;12.70;99.90;;;;;;4972019;28;20096;-44
2023/11/14 09:09:54;;;;;;;16.58;3.28;;;12.70;99.90;;;;;;4972126;28;20081;-49
2023/11/14 09:12:19;;;;;;;20.33;3.40;;;12.70;99.90;;;;;;4971779;28;20056;-51
2023/11/14 09:14:45;;;;;;;13.23;3.10;;;12.70;99.90;;;;;;4958612;28;20030;-56
2023/11/14 09:17:12;;;;;;;19.45;3.72;;;12.70;99.90;;;;;;4971482;28;20200;-53
2023/11/14 09:19:37;;;;;;;15.13;3.03;;;12.60;99.90;;;;;;4972029;28;20518;-56
2023/11/14 09:22:04;;;;;;;17.88;3.03;;;12.70;99.90;;;;;;4971756;28;20115;-55
2023/11/14 09:24:30;;;;;;;11.93;2.85;;;12.70;99.90;;;;;;4971109;28;20030;-54
2023/11/14 09:26:55;;;;;;;15.48;2.67;;;12.70;99.90;;;;;;4970886;28;20033;-55
2023/11/14 09:29:21;;;;;;;7.53;2.28;;;12.70;99.90;;;;;;4969807;28;20070;-53
2023/11/14 09:31:46;;;;;;;8.32;1.80;;;12.80;99.90;;;;;;4965531;28;20027;-57
2023/11/14 09:34:12;;;;;;;18.05;3.13;;;12.70;99.90;;;;;;4969206;28;20490;-54
2023/11/14 09:36:38;;;;;;;12.13;2.55;;;12.70;99.90;;;;;;4969604;28;20039;-51
2023/11/14 09:39:03;;;;;;;9.43;3.25;;;12.70;99.90;;;;;;4970643;28;20050;-47
2023/11/14 09:41:32;;;;;;;14.10;2.45;;;12.80;99.90;;;;;;4971261;28;20502;-50
2023/11/14 09:43:58;;;;;;;11.50;3.75;;;12.70;99.90;;;;;;4970779;28;20035;-50
2023/11/14 09:46:24;;;;;;;8.63;2.42;;;12.80;99.90;;;;;;4970273;28;20110;-54
2023/11/14 09:48:50;;;;;;;13.75;3.45;;;12.70;99.90;;;;;;4971552;28;20570;-49
2023/11/14 09:51:16;;;;;;;11.85;2.92;;;12.70;99.90;;;;;;4971358;28;20076;-50
2023/11/14 09:53:44;;;;;;;12.27;3.17;;;12.80;99.90;;;;;;4971520;28;20038;-48
2023/11/14 09:56:10;;;;;;;13.85;2.65;;;12.80;99.90;;;;;;4971388;28;20031;-50
2023/11/14 09:58:36;;;;;;;13.00;3.22;;;12.80;99.90;;;;;;4971309;28;20107;-50
2023/11/14 10:01:01;;;;;;;7.07;2.85;;;12.70;99.90;;;;;;4971205;28;20027;-48
2023/11/14 10:03:31;;;;;;;12.27;2.58;;;12.70;99.90;;;;;;4971314;28;20027;-53
2023/11/14 10:05:57;;;;;;;6.82;2.35;;;12.70;99.90;;;;;;4971379;28;20015;-53
2023/11/14 10:08:24;;;;;;;12.23;2.75;;;12.70;99.90;;;;;;4970075;28;20509;-48
2023/11/14 10:11:10;;;;;;;14.13;2.90;;;12.70;99.90;;;;;;4970758;28;20026;-52
2023/11/14 10:13:39;;;;;;;14.27;2.72;;;12.70;99.90;;;;;;4970915;28;20106;-51
2023/11/14 10:16:11;;;;;;;12.32;2.90;;;12.70;99.90;;;;;;4970641;28;20518;-46
2023/11/14 10:18:37;;;;;;;14.02;2.60;;;12.70;99.90;;;;;;4970638;28;20081;-47
2023/11/14 10:21:02;;;;;;;12.88;2.50;;;12.80;99.90;;;;;;4970559;28;20487;-47
2023/11/14 10:23:34;;;;;;;8.20;2.72;;;12.90;99.90;;;;;;4969496;28;20031;-46
2023/11/14 10:26:08;;;;;;;13.20;4.55;;;12.90;99.90;;;;;;4970530;28;20068;-48
2023/11/14 10:28:34;;;;;;;12.85;2.58;;;12.90;99.90;;;;;;4970474;28;20054;-47
2023/11/14 10:31:00;;;;;;;11.68;2.67;;;12.90;99.90;;;;;;4970664;28;20394;-48
2023/11/14 10:33:30;;;;;;;11.32;2.65;;;12.90;99.90;;;;;;4970124;28;20038;-45
2023/11/14 10:36:08;;;;;;;13.88;2.92;;;12.90;99.90;;;;;;4969410;28;20030;-50
2023/11/14 10:38:34;;;;;;;8.82;2.15;;;12.90;99.90;;;;;;4970199;28;20176;-63
2023/11/14 10:40:59;;;;;;;14.50;3.08;;;12.90;99.90;;;;;;4970897;28;20521;-53
2023/11/14 10:43:35;;;;;;;11.63;2.42;;;12.90;99.90;;;;;;4971167;28;20035;-47
2023/11/14 10:46:15;;;;;;;10.70;3.35;;;12.90;99.90;;;;;;4970878;28;20027;-50
2023/11/14 10:48:41;;;;;;;7.07;2.28;;;12.90;99.90;;;;;;4970671;28;20375;-48
2023/11/14 10:51:08;;;;;;;21.63;5.72;;;12.90;99.90;;;;;;4960364;28;20030;-59
2023/11/14 10:53:33;;;;;;;10.13;2.85;;;12.80;99.90;;;;;;4970833;28;20076;-49
2023/11/14 10:56:02;;;;;;;14.60;3.05;;;12.80;99.90;;;;;;4969435;28;20027;-49
2023/11/14 10:58:29;;;;;;;12.85;2.92;;;12.80;99.90;;;;;;4970446;28;20069;-50
2023/11/14 11:00:57;;;;;;;15.35;3.00;;;12.80;99.90;;;;;;4969441;28;20041;-50
2023/11/14 11:03:24;;;;;;;12.15;3.33;;;12.80;99.90;;;;;;4970326;28;20026;-57
2023/11/14 11:05:50;;;;;;;13.40;2.85;;;12.80;99.90;;;;;;4970330;28;20105;-50
2023/11/14 11:08:15;;;;;;;16.23;4.10;;;12.80;99.90;;;;;;4970412;28;20077;-51
2023/11/14 11:10:44;;;;;;;16.08;2.63;;;12.80;99.90;;;;;;4970185;28;20091;-52
2023/11/14 11:13:16;;;;;;;8.93;2.10;;;12.80;99.90;;;;;;4970357;28;20618;-47
2023/11/14 11:15:43;;;;;;;12.27;2.50;;;12.80;99.90;;;;;;4970488;28;20027;-49
2023/11/14 11:18:09;;;;;;;16.02;3.50;;;12.80;99.90;;;;;;4970203;28;20030;-46
2023/11/14 11:20:35;;;;;;;18.40;3.33;;;12.70;99.90;;;;;;4970015;28;20490;-48
2023/11/14 11:23:08;;;;;;;20.08;2.88;;;12.80;99.90;;;;;;4969334;28;20027;-47
2023/11/14 11:25:41;;;;;;;8.85;2.58;;;12.80;99.90;;;;;;4969905;28;19909;-47
2023/11/14 11:28:30;;;;;;;13.77;3.17;;;12.80;99.90;;;;;;4968339;28;20487;-48
2023/11/14 11:31:04;;;;;;;19.98;2.95;;;12.80;99.90;;;;;;4969969;28;20088;-46
2023/11/14 11:33:37;;;;;;;14.45;3.00;;;12.80;99.90;;;;;;4969253;28;20122;-51
2023/11/14 11:36:20;;;;;;;12.82;2.70;;;12.90;99.90;;;;;;4970366;28;20054;-50
2023/11/14 11:38:57;;;;;;;12.95;2.97;;;13.00;99.90;;;;;;4969465;28;20043;-47
2023/11/14 11:41:25;;;;;;;15.98;3.70;;;13.10;99.90;;;;;;4969868;28;20042;-47
2023/11/14 11:44:00;;;;;;;22.95;8.13;;;13.00;99.90;;;;;;4969864;28;20399;-49
2023/11/14 11:46:32;;;;;;;50.60;32.17;;;13.00;99.90;;;;;;4968039;28;20080;-56
2023/11/14 11:49:12;;;;;;;14.23;4.72;;;13.00;99.90;;;;;;4970172;28;20027;-58
2023/11/14 11:51:43;;;;;;;10.93;2.35;;;13.10;99.90;;;;;;4969540;28;20054;-55
2023/11/14 11:54:27;;;;;;;12.30;2.08;;;13.10;99.90;;;;;;4969048;28;20039;-56
2023/11/14 11:57:11;;;;;;;9.98;2.42;;;13.10;99.90;;;;;;4969765;28;20050;-52
2023/11/14 11:59:39;;;;;;;20.10;4.53;;;13.10;99.90;;;;;;4966043;28;20027;-57
2023/11/14 12:02:14;;;;;;;9.38;3.00;;;13.10;99.90;;;;;;4958293;28;20449;-50
2023/11/14 12:04:40;;;;;;;10.05;2.58;;;13.10;99.90;;;;;;4963014;28;20020;-48
2023/11/14 12:07:06;;;;;;;19.63;2.88;;;13.10;99.90;;;;;;4957339;28;20023;-52
2023/11/14 12:09:32;;;;;;;10.40;2.50;;;13.10;99.90;;;;;;4971150;28;20529;-55
2023/11/14 12:11:58;;;;;;;15.00;3.22;;;13.10;99.90;;;;;;4970267;28;20106;-53
2023/11/14 12:14:25;;;;;;;8.55;2.08;;;13.10;99.90;;;;;;4971574;28;20041;-58
2023/11/14 12:16:51;;;;;;;12.63;2.97;;;13.10;99.90;;;;;;4961891;28;20031;-51
2023/11/14 12:19:16;;;;;;;9.82;2.03;;;13.10;99.90;;;;;;4971612;28;20027;-54
2023/11/14 12:21:45;;;;;;;13.40;2.63;;;13.10;99.90;;;;;;4972592;28;20031;-55
2023/11/14 12:24:12;;;;;;;10.68;2.30;;;13.10;99.90;;;;;;4972926;28;20058;-52
2023/11/14 12:26:38;;;;;;;11.18;2.38;;;13.10;99.90;;;;;;4972590;28;20027;-50
2023/11/14 12:29:08;;;;;;;15.55;2.10;;;13.10;99.90;;;;;;4972907;28;20027;-55
2023/11/14 12:31:34;;;;;;;14.63;2.53;;;13.20;99.90;;;;;;4972918;28;20023;-53
2023/11/14 12:34:00;;;;;;;18.73;2.90;;;13.20;99.90;;;;;;4972952;28;20034;-48
2023/11/14 12:36:27;;;;;;;9.73;2.63;;;13.20;99.90;;;;;;4972629;28;20034;-50